sensor_id;sensor_type;location;lat;lon;timestamp;P1;durP1;ratioP1;P2;durP2;ratioP2
23015;SDS011;11674;52.428;13.584;2023-07-30T00:00:49;7.60;;;4.25;;
23015;SDS011;11674;52.428;13.584;2023-07-30T00:05:56;5.57;;;3.67;;
23015;SDS011;11674;52.428;13.584;2023-07-30T00:11:03;17.88;;;10.32;;
23015;SDS011;11674;52.428;13.584;2023-07-30T00:16:10;8.27;;;5.38;;
23015;SDS011;11674;52.428;13.584;2023-07-30T00:21:17;8.63;;;5.32;;
23015;SDS011;11674;52.428;13.584;2023-07-30T00:26:25;10.10;;;4.55;;
23015;SDS011;11674;52.428;13.584;2023-07-30T00:31:31;6.57;;;4.90;;
23015;SDS011;11674;52.428;13.584;2023-07-30T00:36:38;6.03;;;4.40;;
23015;SDS011;11674;52.428;13.584;2023-07-30T00:41:45;4.60;;;4.13;;
23015;SDS011;11674;52.428;13.584;2023-07-30T00:46:52;6.93;;;4.18;;
23015;SDS011;11674;52.428;13.584;2023-07-30T00:51:59;4.65;;;3.70;;
23015;SDS011;11674;52.428;13.584;2023-07-30T00:57:06;10.27;;;5.72;;
23015;SDS011;11674;52.428;13.584;2023-07-30T01:02:13;5.10;;;3.97;;
23015;SDS011;11674;52.428;13.584;2023-07-30T01:07:20;8.38;;;5.40;;
23015;SDS011;11674;52.428;13.584;2023-07-30T01:12:28;8.20;;;4.22;;
23015;SDS011;11674;52.428;13.584;2023-07-30T01:17:36;5.80;;;4.30;;
23015;SDS011;11674;52.428;13.584;2023-07-30T01:22:43;5.65;;;4.32;;
23015;SDS011;11674;52.428;13.584;2023-07-30T01:27:52;5.35;;;3.78;;
23015;SDS011;11674;52.428;13.584;2023-07-30T01:33:03;6.85;;;4.50;;
23015;SDS011;11674;52.428;13.584;2023-07-30T01:38:12;7.13;;;4.55;;
23015;SDS011;11674;52.428;13.584;2023-07-30T01:43:19;8.80;;;5.88;;
23015;SDS011;11674;52.428;13.584;2023-07-30T01:48:26;8.65;;;4.80;;
23015;SDS011;11674;52.428;13.584;2023-07-30T01:53:33;7.88;;;4.43;;
23015;SDS011;11674;52.428;13.584;2023-07-30T01:58:40;7.38;;;4.35;;
23015;SDS011;11674;52.428;13.584;2023-07-30T02:03:47;7.20;;;5.20;;
23015;SDS011;11674;52.428;13.584;2023-07-30T02:08:54;11.50;;;5.40;;
23015;SDS011;11674;52.428;13.584;2023-07-30T02:14:01;9.55;;;4.70;;
23015;SDS011;11674;52.428;13.584;2023-07-30T02:19:08;13.55;;;5.45;;
23015;SDS011;11674;52.428;13.584;2023-07-30T02:24:15;7.30;;;4.72;;
23015;SDS011;11674;52.428;13.584;2023-07-30T02:29:22;8.13;;;4.60;;
23015;SDS011;11674;52.428;13.584;2023-07-30T02:34:29;11.48;;;5.07;;
23015;SDS011;11674;52.428;13.584;2023-07-30T02:39:36;5.97;;;4.72;;
23015;SDS011;11674;52.428;13.584;2023-07-30T02:44:43;8.68;;;5.13;;
23015;SDS011;11674;52.428;13.584;2023-07-30T02:49:50;6.25;;;5.35;;
23015;SDS011;11674;52.428;13.584;2023-07-30T02:54:58;8.27;;;5.32;;
23015;SDS011;11674;52.428;13.584;2023-07-30T03:00:05;7.68;;;5.63;;
23015;SDS011;11674;52.428;13.584;2023-07-30T03:05:13;7.50;;;5.70;;
23015;SDS011;11674;52.428;13.584;2023-07-30T03:10:19;8.85;;;5.80;;
23015;SDS011;11674;52.428;13.584;2023-07-30T03:15:26;8.93;;;6.13;;
23015;SDS011;11674;52.428;13.584;2023-07-30T03:20:33;6.47;;;5.78;;
23015;SDS011;11674;52.428;13.584;2023-07-30T03:25:40;7.75;;;5.72;;
23015;SDS011;11674;52.428;13.584;2023-07-30T03:30:47;12.55;;;6.20;;
23015;SDS011;11674;52.428;13.584;2023-07-30T03:35:54;9.38;;;6.00;;
23015;SDS011;11674;52.428;13.584;2023-07-30T03:41:01;9.27;;;5.97;;
23015;SDS011;11674;52.428;13.584;2023-07-30T03:46:10;7.75;;;6.03;;
23015;SDS011;11674;52.428;13.584;2023-07-30T03:51:18;8.18;;;5.40;;
23015;SDS011;11674;52.428;13.584;2023-07-30T03:56:24;7.53;;;5.72;;
23015;SDS011;11674;52.428;13.584;2023-07-30T04:01:31;7.32;;;6.28;;
23015;SDS011;11674;52.428;13.584;2023-07-30T04:06:39;8.95;;;5.88;;
23015;SDS011;11674;52.428;13.584;2023-07-30T04:11:45;6.13;;;5.43;;
23015;SDS011;11674;52.428;13.584;2023-07-30T04:16:52;7.75;;;5.90;;
23015;SDS011;11674;52.428;13.584;2023-07-30T04:22:09;6.47;;;5.68;;
23015;SDS011;11674;52.428;13.584;2023-07-30T04:27:23;6.55;;;5.93;;
23015;SDS011;11674;52.428;13.584;2023-07-30T04:32:31;8.27;;;5.95;;
23015;SDS011;11674;52.428;13.584;2023-07-30T04:37:38;5.75;;;5.25;;
23015;SDS011;11674;52.428;13.584;2023-07-30T04:42:45;7.28;;;5.63;;
23015;SDS011;11674;52.428;13.584;2023-07-30T04:47:53;7.75;;;5.38;;
23015;SDS011;11674;52.428;13.584;2023-07-30T04:53:00;12.18;;;5.65;;
23015;SDS011;11674;52.428;13.584;2023-07-30T04:58:07;5.93;;;5.03;;
23015;SDS011;11674;52.428;13.584;2023-07-30T05:03:14;6.13;;;5.03;;
23015;SDS011;11674;52.428;13.584;2023-07-30T05:08:21;5.72;;;4.97;;
23015;SDS011;11674;52.428;13.584;2023-07-30T05:13:29;6.57;;;5.00;;
23015;SDS011;11674;52.428;13.584;2023-07-30T05:18:43;5.57;;;5.05;;
23015;SDS011;11674;52.428;13.584;2023-07-30T05:23:50;5.10;;;4.60;;
23015;SDS011;11674;52.428;13.584;2023-07-30T05:28:56;7.68;;;4.85;;
23015;SDS011;11674;52.428;13.584;2023-07-30T05:34:04;4.82;;;4.15;;
23015;SDS011;11674;52.428;13.584;2023-07-30T05:39:11;6.93;;;4.15;;
23015;SDS011;11674;52.428;13.584;2023-07-30T05:44:18;4.53;;;4.13;;
23015;SDS011;11674;52.428;13.584;2023-07-30T05:49:25;5.18;;;3.58;;
23015;SDS011;11674;52.428;13.584;2023-07-30T05:54:32;4.72;;;4.20;;
23015;SDS011;11674;52.428;13.584;2023-07-30T05:59:39;7.00;;;4.13;;
23015;SDS011;11674;52.428;13.584;2023-07-30T06:04:46;5.50;;;4.10;;
23015;SDS011;11674;52.428;13.584;2023-07-30T06:09:53;5.80;;;4.30;;
23015;SDS011;11674;52.428;13.584;2023-07-30T06:15:00;4.43;;;3.95;;
23015;SDS011;11674;52.428;13.584;2023-07-30T06:20:07;6.25;;;3.88;;
23015;SDS011;11674;52.428;13.584;2023-07-30T06:25:15;6.32;;;4.53;;
23015;SDS011;11674;52.428;13.584;2023-07-30T06:30:22;6.25;;;3.63;;
23015;SDS011;11674;52.428;13.584;2023-07-30T06:35:29;11.35;;;4.10;;
23015;SDS011;11674;52.428;13.584;2023-07-30T06:40:36;4.43;;;3.83;;
23015;SDS011;11674;52.428;13.584;2023-07-30T06:45:43;5.00;;;3.25;;
23015;SDS011;11674;52.428;13.584;2023-07-30T06:50:50;4.68;;;3.15;;
23015;SDS011;11674;52.428;13.584;2023-07-30T06:55:57;5.07;;;3.40;;
23015;SDS011;11674;52.428;13.584;2023-07-30T07:01:04;6.22;;;3.40;;
23015;SDS011;11674;52.428;13.584;2023-07-30T07:06:11;5.05;;;3.35;;
23015;SDS011;11674;52.428;13.584;2023-07-30T07:11:18;4.20;;;3.10;;
23015;SDS011;11674;52.428;13.584;2023-07-30T07:16:25;6.70;;;3.80;;
23015;SDS011;11674;52.428;13.584;2023-07-30T07:21:32;4.15;;;3.10;;
23015;SDS011;11674;52.428;13.584;2023-07-30T07:26:39;4.50;;;3.45;;
23015;SDS011;11674;52.428;13.584;2023-07-30T07:31:46;4.22;;;3.63;;
23015;SDS011;11674;52.428;13.584;2023-07-30T07:36:53;3.80;;;3.30;;
23015;SDS011;11674;52.428;13.584;2023-07-30T07:42:00;8.70;;;3.38;;
23015;SDS011;11674;52.428;13.584;2023-07-30T07:47:07;6.40;;;3.55;;
23015;SDS011;11674;52.428;13.584;2023-07-30T07:52:14;5.20;;;3.20;;
23015;SDS011;11674;52.428;13.584;2023-07-30T07:57:21;4.95;;;3.65;;
23015;SDS011;11674;52.428;13.584;2023-07-30T08:02:28;4.40;;;3.38;;
23015;SDS011;11674;52.428;13.584;2023-07-30T08:07:35;3.47;;;3.05;;
23015;SDS011;11674;52.428;13.584;2023-07-30T08:12:42;3.03;;;2.65;;
23015;SDS011;11674;52.428;13.584;2023-07-30T08:17:49;5.80;;;2.88;;
23015;SDS011;11674;52.428;13.584;2023-07-30T08:22:56;3.92;;;3.33;;
23015;SDS011;11674;52.428;13.584;2023-07-30T08:28:03;4.50;;;2.90;;
23015;SDS011;11674;52.428;13.584;2023-07-30T08:33:10;4.22;;;2.90;;
23015;SDS011;11674;52.428;13.584;2023-07-30T08:38:17;3.83;;;3.42;;
23015;SDS011;11674;52.428;13.584;2023-07-30T08:43:24;4.18;;;2.90;;
23015;SDS011;11674;52.428;13.584;2023-07-30T08:48:31;5.97;;;2.83;;
23015;SDS011;11674;52.428;13.584;2023-07-30T08:53:38;3.08;;;2.08;;
23015;SDS011;11674;52.428;13.584;2023-07-30T08:58:46;3.92;;;2.13;;
23015;SDS011;11674;52.428;13.584;2023-07-30T09:03:56;4.53;;;1.90;;
23015;SDS011;11674;52.428;13.584;2023-07-30T09:09:04;3.67;;;2.10;;
23015;SDS011;11674;52.428;13.584;2023-07-30T09:14:12;2.95;;;2.08;;
23015;SDS011;11674;52.428;13.584;2023-07-30T09:19:19;3.50;;;2.40;;
23015;SDS011;11674;52.428;13.584;2023-07-30T09:24:26;3.35;;;2.00;;
23015;SDS011;11674;52.428;13.584;2023-07-30T09:29:33;2.38;;;1.80;;
23015;SDS011;11674;52.428;13.584;2023-07-30T09:34:40;3.90;;;1.95;;
23015;SDS011;11674;52.428;13.584;2023-07-30T09:39:51;3.00;;;1.98;;
23015;SDS011;11674;52.428;13.584;2023-07-30T09:44:58;3.25;;;1.50;;
23015;SDS011;11674;52.428;13.584;2023-07-30T09:50:05;4.80;;;1.88;;
23015;SDS011;11674;52.428;13.584;2023-07-30T09:55:13;5.07;;;2.25;;
23015;SDS011;11674;52.428;13.584;2023-07-30T10:00:20;6.82;;;1.80;;
23015;SDS011;11674;52.428;13.584;2023-07-30T10:05:28;2.75;;;1.75;;
23015;SDS011;11674;52.428;13.584;2023-07-30T10:10:39;2.72;;;1.98;;
23015;SDS011;11674;52.428;13.584;2023-07-30T10:15:46;2.85;;;1.50;;
23015;SDS011;11674;52.428;13.584;2023-07-30T10:20:53;2.20;;;1.45;;
23015;SDS011;11674;52.428;13.584;2023-07-30T10:26:10;3.70;;;2.08;;
23015;SDS011;11674;52.428;13.584;2023-07-30T10:31:17;4.38;;;1.80;;
23015;SDS011;11674;52.428;13.584;2023-07-30T10:36:30;3.13;;;1.63;;
23015;SDS011;11674;52.428;13.584;2023-07-30T10:41:38;4.68;;;1.58;;
23015;SDS011;11674;52.428;13.584;2023-07-30T10:46:45;4.07;;;1.70;;
23015;SDS011;11674;52.428;13.584;2023-07-30T10:51:52;2.22;;;1.45;;
23015;SDS011;11674;52.428;13.584;2023-07-30T10:57:01;2.53;;;1.40;;
23015;SDS011;11674;52.428;13.584;2023-07-30T11:02:09;4.03;;;1.55;;
23015;SDS011;11674;52.428;13.584;2023-07-30T11:07:16;2.15;;;1.50;;
23015;SDS011;11674;52.428;13.584;2023-07-30T11:12:24;2.42;;;1.60;;
23015;SDS011;11674;52.428;13.584;2023-07-30T11:17:31;4.22;;;1.88;;
23015;SDS011;11674;52.428;13.584;2023-07-30T11:22:38;2.72;;;1.48;;
23015;SDS011;11674;52.428;13.584;2023-07-30T11:27:48;4.03;;;1.85;;
23015;SDS011;11674;52.428;13.584;2023-07-30T11:32:56;4.57;;;1.90;;
23015;SDS011;11674;52.428;13.584;2023-07-30T11:38:03;2.38;;;1.80;;
23015;SDS011;11674;52.428;13.584;2023-07-30T11:43:10;4.72;;;1.98;;
23015;SDS011;11674;52.428;13.584;2023-07-30T11:48:17;3.10;;;1.63;;
23015;SDS011;11674;52.428;13.584;2023-07-30T11:53:30;3.55;;;1.75;;
23015;SDS011;11674;52.428;13.584;2023-07-30T11:58:53;4.15;;;1.70;;
23015;SDS011;11674;52.428;13.584;2023-07-30T12:04:04;5.88;;;2.20;;
23015;SDS011;11674;52.428;13.584;2023-07-30T12:09:12;3.08;;;1.63;;
23015;SDS011;11674;52.428;13.584;2023-07-30T12:19:34;6.32;;;1.80;;
23015;SDS011;11674;52.428;13.584;2023-07-30T12:24:41;5.50;;;1.80;;
23015;SDS011;11674;52.428;13.584;2023-07-30T12:29:48;6.70;;;2.47;;
23015;SDS011;11674;52.428;13.584;2023-07-30T12:34:55;2.63;;;1.30;;
23015;SDS011;11674;52.428;13.584;2023-07-30T12:40:02;3.50;;;1.30;;
23015;SDS011;11674;52.428;13.584;2023-07-30T12:45:09;2.85;;;1.42;;
23015;SDS011;11674;52.428;13.584;2023-07-30T12:50:16;7.80;;;1.58;;
23015;SDS011;11674;52.428;13.584;2023-07-30T12:55:23;5.45;;;1.70;;
23015;SDS011;11674;52.428;13.584;2023-07-30T13:00:31;17.42;;;10.10;;
23015;SDS011;11674;52.428;13.584;2023-07-30T13:05:38;4.63;;;2.00;;
23015;SDS011;11674;52.428;13.584;2023-07-30T13:10:45;4.53;;;1.50;;
23015;SDS011;11674;52.428;13.584;2023-07-30T13:15:52;2.47;;;1.52;;
23015;SDS011;11674;52.428;13.584;2023-07-30T13:20:59;4.47;;;1.58;;
23015;SDS011;11674;52.428;13.584;2023-07-30T13:26:06;6.03;;;3.30;;
23015;SDS011;11674;52.428;13.584;2023-07-30T13:31:13;4.45;;;1.70;;
23015;SDS011;11674;52.428;13.584;2023-07-30T13:36:20;3.63;;;1.35;;
23015;SDS011;11674;52.428;13.584;2023-07-30T13:41:27;5.15;;;1.60;;
23015;SDS011;11674;52.428;13.584;2023-07-30T13:46:34;5.95;;;3.22;;
23015;SDS011;11674;52.428;13.584;2023-07-30T13:51:41;2.58;;;1.83;;
23015;SDS011;11674;52.428;13.584;2023-07-30T13:56:48;5.55;;;1.80;;
23015;SDS011;11674;52.428;13.584;2023-07-30T14:01:55;6.68;;;1.83;;
23015;SDS011;11674;52.428;13.584;2023-07-30T14:07:02;5.70;;;1.80;;
23015;SDS011;11674;52.428;13.584;2023-07-30T14:12:09;2.78;;;1.70;;
23015;SDS011;11674;52.428;13.584;2023-07-30T14:17:16;3.58;;;1.73;;
23015;SDS011;11674;52.428;13.584;2023-07-30T14:22:23;3.35;;;1.60;;
23015;SDS011;11674;52.428;13.584;2023-07-30T14:27:30;4.53;;;1.65;;
23015;SDS011;11674;52.428;13.584;2023-07-30T14:32:37;4.53;;;1.40;;
23015;SDS011;11674;52.428;13.584;2023-07-30T14:37:44;3.42;;;1.30;;
23015;SDS011;11674;52.428;13.584;2023-07-30T14:42:51;2.92;;;1.38;;
23015;SDS011;11674;52.428;13.584;2023-07-30T14:47:58;2.97;;;1.58;;
23015;SDS011;11674;52.428;13.584;2023-07-30T14:53:05;3.72;;;1.92;;
23015;SDS011;11674;52.428;13.584;2023-07-30T14:58:12;4.30;;;2.08;;
23015;SDS011;11674;52.428;13.584;2023-07-30T15:03:19;4.97;;;1.13;;
23015;SDS011;11674;52.428;13.584;2023-07-30T15:08:26;9.13;;;2.30;;
23015;SDS011;11674;52.428;13.584;2023-07-30T15:13:33;4.82;;;1.67;;
23015;SDS011;11674;52.428;13.584;2023-07-30T15:18:43;4.30;;;1.50;;
23015;SDS011;11674;52.428;13.584;2023-07-30T15:23:50;7.80;;;2.08;;
23015;SDS011;11674;52.428;13.584;2023-07-30T15:28:57;4.07;;;2.53;;
23015;SDS011;11674;52.428;13.584;2023-07-30T15:34:04;7.55;;;1.92;;
23015;SDS011;11674;52.428;13.584;2023-07-30T15:39:11;4.95;;;1.83;;
23015;SDS011;11674;52.428;13.584;2023-07-30T15:44:18;5.43;;;1.90;;
23015;SDS011;11674;52.428;13.584;2023-07-30T15:49:25;4.80;;;1.88;;
23015;SDS011;11674;52.428;13.584;2023-07-30T15:54:33;4.30;;;2.53;;
23015;SDS011;11674;52.428;13.584;2023-07-30T15:59:48;4.40;;;1.60;;
23015;SDS011;11674;52.428;13.584;2023-07-30T16:04:55;4.30;;;2.08;;
23015;SDS011;11674;52.428;13.584;2023-07-30T16:10:03;3.35;;;1.83;;
23015;SDS011;11674;52.428;13.584;2023-07-30T16:15:13;6.38;;;1.70;;
23015;SDS011;11674;52.428;13.584;2023-07-30T16:20:20;7.38;;;2.03;;
23015;SDS011;11674;52.428;13.584;2023-07-30T16:25:27;1.80;;;1.20;;
23015;SDS011;11674;52.428;13.584;2023-07-30T16:30:34;3.20;;;1.30;;
23015;SDS011;11674;52.428;13.584;2023-07-30T16:35:41;2.20;;;1.20;;
23015;SDS011;11674;52.428;13.584;2023-07-30T16:40:48;2.05;;;1.13;;
23015;SDS011;11674;52.428;13.584;2023-07-30T16:45:58;2.60;;;1.50;;
23015;SDS011;11674;52.428;13.584;2023-07-30T16:51:05;3.53;;;1.40;;
23015;SDS011;11674;52.428;13.584;2023-07-30T16:56:12;1.67;;;1.10;;
23015;SDS011;11674;52.428;13.584;2023-07-30T17:01:20;2.55;;;1.50;;
23015;SDS011;11674;52.428;13.584;2023-07-30T17:06:27;2.67;;;1.20;;
23015;SDS011;11674;52.428;13.584;2023-07-30T17:11:35;2.65;;;1.42;;
23015;SDS011;11674;52.428;13.584;2023-07-30T17:16:43;3.45;;;1.40;;
23015;SDS011;11674;52.428;13.584;2023-07-30T17:21:50;2.70;;;1.30;;
23015;SDS011;11674;52.428;13.584;2023-07-30T17:26:57;2.20;;;1.50;;
23015;SDS011;11674;52.428;13.584;2023-07-30T17:32:04;3.58;;;1.30;;
23015;SDS011;11674;52.428;13.584;2023-07-30T17:37:11;1.90;;;1.13;;
23015;SDS011;11674;52.428;13.584;2023-07-30T17:42:18;2.90;;;1.35;;
23015;SDS011;11674;52.428;13.584;2023-07-30T17:47:25;3.78;;;1.60;;
23015;SDS011;11674;52.428;13.584;2023-07-30T17:52:32;3.55;;;1.70;;
23015;SDS011;11674;52.428;13.584;2023-07-30T17:57:39;4.55;;;2.33;;
23015;SDS011;11674;52.428;13.584;2023-07-30T18:02:46;3.45;;;1.45;;
23015;SDS011;11674;52.428;13.584;2023-07-30T18:07:53;3.80;;;1.45;;
23015;SDS011;11674;52.428;13.584;2023-07-30T18:13:00;3.53;;;1.52;;
23015;SDS011;11674;52.428;13.584;2023-07-30T18:18:07;6.35;;;2.00;;
23015;SDS011;11674;52.428;13.584;2023-07-30T18:23:14;5.47;;;2.47;;
23015;SDS011;11674;52.428;13.584;2023-07-30T18:28:21;4.68;;;1.83;;
23015;SDS011;11674;52.428;13.584;2023-07-30T18:33:28;7.93;;;1.60;;
23015;SDS011;11674;52.428;13.584;2023-07-30T18:38:35;5.10;;;1.60;;
23015;SDS011;11674;52.428;13.584;2023-07-30T18:43:42;3.83;;;1.70;;
23015;SDS011;11674;52.428;13.584;2023-07-30T18:48:49;4.85;;;1.73;;
23015;SDS011;11674;52.428;13.584;2023-07-30T18:53:56;4.53;;;2.10;;
23015;SDS011;11674;52.428;13.584;2023-07-30T18:59:03;5.18;;;1.42;;
23015;SDS011;11674;52.428;13.584;2023-07-30T19:04:10;2.67;;;1.77;;
23015;SDS011;11674;52.428;13.584;2023-07-30T19:09:17;2.20;;;1.85;;
23015;SDS011;11674;52.428;13.584;2023-07-30T19:14:24;9.43;;;2.10;;
23015;SDS011;11674;52.428;13.584;2023-07-30T19:19:31;7.63;;;2.30;;
23015;SDS011;11674;52.428;13.584;2023-07-30T19:24:39;6.68;;;2.20;;
23015;SDS011;11674;52.428;13.584;2023-07-30T19:29:46;4.35;;;2.00;;
23015;SDS011;11674;52.428;13.584;2023-07-30T19:34:53;8.80;;;2.60;;
23015;SDS011;11674;52.428;13.584;2023-07-30T19:40:01;4.10;;;2.17;;
23015;SDS011;11674;52.428;13.584;2023-07-30T19:45:08;5.22;;;2.30;;
23015;SDS011;11674;52.428;13.584;2023-07-30T19:50:17;4.38;;;2.10;;
23015;SDS011;11674;52.428;13.584;2023-07-30T19:55:24;8.70;;;2.35;;
23015;SDS011;11674;52.428;13.584;2023-07-30T20:00:31;4.88;;;2.17;;
23015;SDS011;11674;52.428;13.584;2023-07-30T20:05:38;5.65;;;3.40;;
23015;SDS011;11674;52.428;13.584;2023-07-30T20:10:45;6.63;;;3.08;;
23015;SDS011;11674;52.428;13.584;2023-07-30T20:15:52;6.60;;;3.47;;
23015;SDS011;11674;52.428;13.584;2023-07-30T20:21:04;6.43;;;3.80;;
23015;SDS011;11674;52.428;13.584;2023-07-30T20:26:15;7.70;;;3.50;;
23015;SDS011;11674;52.428;13.584;2023-07-30T20:31:23;9.23;;;3.30;;
23015;SDS011;11674;52.428;13.584;2023-07-30T20:36:30;7.68;;;3.40;;
23015;SDS011;11674;52.428;13.584;2023-07-30T20:41:37;9.48;;;4.15;;
23015;SDS011;11674;52.428;13.584;2023-07-30T20:46:44;8.85;;;4.88;;
23015;SDS011;11674;52.428;13.584;2023-07-30T20:51:51;13.18;;;5.00;;
23015;SDS011;11674;52.428;13.584;2023-07-30T20:56:58;10.13;;;5.03;;
23015;SDS011;11674;52.428;13.584;2023-07-30T21:02:05;14.95;;;6.00;;
23015;SDS011;11674;52.428;13.584;2023-07-30T21:07:12;6.70;;;3.90;;
23015;SDS011;11674;52.428;13.584;2023-07-30T21:12:19;7.93;;;3.75;;
23015;SDS011;11674;52.428;13.584;2023-07-30T21:17:27;6.85;;;3.70;;
23015;SDS011;11674;52.428;13.584;2023-07-30T21:22:34;9.85;;;4.68;;
23015;SDS011;11674;52.428;13.584;2023-07-30T21:27:45;9.70;;;4.30;;
23015;SDS011;11674;52.428;13.584;2023-07-30T21:32:52;6.37;;;4.10;;
23015;SDS011;11674;52.428;13.584;2023-07-30T21:37:59;8.10;;;4.38;;
23015;SDS011;11674;52.428;13.584;2023-07-30T21:43:06;8.55;;;4.75;;
23015;SDS011;11674;52.428;13.584;2023-07-30T21:48:13;11.65;;;4.88;;
23015;SDS011;11674;52.428;13.584;2023-07-30T21:53:20;8.85;;;4.05;;
23015;SDS011;11674;52.428;13.584;2023-07-30T21:58:27;5.88;;;2.80;;
23015;SDS011;11674;52.428;13.584;2023-07-30T22:03:34;4.05;;;3.05;;
23015;SDS011;11674;52.428;13.584;2023-07-30T22:08:41;7.57;;;3.20;;
23015;SDS011;11674;52.428;13.584;2023-07-30T22:13:48;10.80;;;3.30;;
23015;SDS011;11674;52.428;13.584;2023-07-30T22:18:55;8.90;;;2.67;;
23015;SDS011;11674;52.428;13.584;2023-07-30T22:24:02;4.35;;;2.58;;
23015;SDS011;11674;52.428;13.584;2023-07-30T22:29:09;7.57;;;2.42;;
23015;SDS011;11674;52.428;13.584;2023-07-30T22:34:16;5.05;;;1.98;;
23015;SDS011;11674;52.428;13.584;2023-07-30T22:39:23;4.55;;;1.90;;
23015;SDS011;11674;52.428;13.584;2023-07-30T22:44:30;3.78;;;1.70;;
23015;SDS011;11674;52.428;13.584;2023-07-30T22:49:37;7.03;;;2.15;;
23015;SDS011;11674;52.428;13.584;2023-07-30T22:54:44;5.57;;;2.03;;
23015;SDS011;11674;52.428;13.584;2023-07-30T22:59:51;4.68;;;1.40;;
23015;SDS011;11674;52.428;13.584;2023-07-30T23:04:58;14.20;;;8.23;;
23015;SDS011;11674;52.428;13.584;2023-07-30T23:10:05;3.88;;;1.30;;
23015;SDS011;11674;52.428;13.584;2023-07-30T23:15:13;2.38;;;1.17;;
23015;SDS011;11674;52.428;13.584;2023-07-30T23:20:20;1.90;;;1.00;;
23015;SDS011;11674;52.428;13.584;2023-07-30T23:25:27;2.92;;;1.30;;
23015;SDS011;11674;52.428;13.584;2023-07-30T23:30:34;1.73;;;1.00;;
23015;SDS011;11674;52.428;13.584;2023-07-30T23:35:44;2.80;;;1.30;;
23015;SDS011;11674;52.428;13.584;2023-07-30T23:40:51;2.22;;;1.20;;
23015;SDS011;11674;52.428;13.584;2023-07-30T23:45:58;2.28;;;1.45;;
23015;SDS011;11674;52.428;13.584;2023-07-30T23:51:05;2.47;;;1.40;;
23015;SDS011;11674;52.428;13.584;2023-07-30T23:56:12;4.40;;;1.25;;
